Time;durP1;ratioP1;P1;durP2;ratioP2;P2;SDS_P1;SDS_P2;PMS_P1;PMS_P2;Temp;Humidity;BMP_temperature;BMP_pressure;BME280_temperature;BME280_humidity;BME280_pressure;Samples;Min_cycle;Max_cycle;Signal;HPM_P1;HPM_P2
2023/03/16 00:00:35;;;;;;;;;;;;;;;28.62;23.23;99688.00;5057520;28;1119;-38
2023/03/16 00:03:01;;;;;;;;;;;;;;;27.67;24.51;99685.72;5056861;28;1902;-40
2023/03/16 00:05:26;;;;;;;;;;;;;;;27.24;25.48;99687.88;5057897;28;1015;-37
2023/03/16 00:07:52;;;;;;;;;;;;;;;28.29;23.94;99694.41;5057409;28;947;-40
2023/03/16 00:10:17;;;;;;;;;;;;;;;28.54;23.63;99690.97;5057156;28;1054;-39
2023/03/16 00:12:43;;;;;;;;;;;;;;;28.25;23.91;99685.91;5057230;28;1150;-38
2023/03/16 00:15:10;;;;;;;;;;;;;;;27.29;25.54;99695.38;5057797;28;1022;-41
2023/03/16 00:17:35;;;;;;;;;;;;;;;28.10;24.12;99700.53;5052271;28;1052;-40
2023/03/16 00:20:05;;;;;;;;;;;;;;;28.14;23.94;99687.44;5053613;28;1258;-41
2023/03/16 00:22:31;;;;;;;;;;;;;;;28.51;23.81;99689.50;5056897;28;1898;-38
2023/03/16 00:24:56;;;;;;;;;;;;;;;28.20;23.78;99693.84;5057242;28;1074;-37
2023/03/16 00:27:22;;;;;;;;;;;;;;;27.48;24.92;99687.41;5057495;28;1210;-39
2023/03/16 00:29:54;;;;;;;;;;;;;;;28.35;24.06;99688.16;5056813;28;1062;-38
2023/03/16 00:32:20;;;;;;;;;;;;;;;28.51;23.70;99700.34;5057024;28;946;-39
2023/03/16 00:34:47;;;;;;;;;;;;;;;28.27;23.87;99696.50;5055326;28;1082;-39
2023/03/16 00:37:14;;;;;;;;;;;;;;;27.30;24.98;99696.19;5056724;28;1221;-38
2023/03/16 00:39:40;;;;;;;;;;;;;;;27.97;24.50;99693.34;5056266;28;1058;-40
2023/03/16 00:42:06;;;;;;;;;;;;;;;28.03;24.52;99697.03;5052451;28;1237;-39
2023/03/16 00:44:32;;;;;;;;;;;;;;;28.51;23.81;99704.94;5054672;28;1910;-39
2023/03/16 00:46:57;;;;;;;;;;;;;;;28.03;24.40;99705.16;5056482;28;1115;-40
2023/03/16 00:49:23;;;;;;;;;;;;;;;27.17;25.75;99714.06;5056899;28;1143;-37
2023/03/16 00:51:48;;;;;;;;;;;;;;;28.15;24.19;99709.88;5056753;28;1003;-37
2023/03/16 00:54:14;;;;;;;;;;;;;;;28.31;23.84;99703.97;5056412;28;1074;-39
2023/03/16 00:56:41;;;;;;;;;;;;;;;28.44;23.42;99704.97;5056441;28;929;-37
2023/03/16 00:59:07;;;;;;;;;;;;;;;27.38;25.36;99701.34;5055389;28;1309;-36
2023/03/16 01:01:33;;;;;;;;;;;;;;;27.78;24.83;99705.06;5056288;28;1104;-39
2023/03/16 01:03:58;;;;;;;;;;;;;;;27.97;24.43;99706.00;5056131;28;1976;-40
2023/03/16 01:06:24;;;;;;;;;;;;;;;28.31;24.35;99703.16;5056301;28;1074;-40
2023/03/16 01:08:51;;;;;;;;;;;;;;;28.34;23.76;99700.03;5055733;28;973;-37
2023/03/16 01:11:17;;;;;;;;;;;;;;;27.39;25.57;99694.94;5057097;28;1137;-40
2023/03/16 01:13:43;;;;;;;;;;;;;;;27.74;25.09;99696.53;5056674;28;1104;-40
2023/03/16 01:16:09;;;;;;;;;;;;;;;28.08;24.59;99702.63;5054523;28;1570;-41
2023/03/16 01:18:34;;;;;;;;;;;;;;;28.43;23.97;99698.72;5056338;28;1169;-39
2023/03/16 01:21:04;;;;;;;;;;;;;;;27.70;24.75;99709.63;5056165;28;1024;-39
2023/03/16 01:23:32;;;;;;;;;;;;;;;27.34;25.36;99709.03;5054664;28;1968;-41
2023/03/16 01:25:58;;;;;;;;;;;;;;;27.99;24.66;99712.03;5056121;28;1150;-40
2023/03/16 01:28:24;;;;;;;;;;;;;;;28.22;24.49;99718.78;5054849;28;1024;-40
2023/03/16 01:30:52;;;;;;;;;;;;;;;28.38;23.69;99716.66;5054712;28;1358;-40
2023/03/16 01:33:19;;;;;;;;;;;;;;;27.58;24.95;99716.69;5088229;28;1130;-38
2023/03/16 01:35:51;;;;;;;;;;;;;;;27.48;25.20;99717.97;5088090;28;1468;-41
2023/03/16 01:38:16;;;;;;;;;;;;;;;28.24;24.32;99727.53;5056323;28;963;-44
2023/03/16 01:40:42;;;;;;;;;;;;;;;28.52;24.08;99726.34;5056167;28;1026;-40
2023/03/16 01:43:09;;;;;;;;;;;;;;;28.20;24.09;99724.41;5054874;28;1963;-41
2023/03/16 01:45:57;;;;;;;;;;;;;;;27.36;25.43;99725.88;5035304;28;1636;-42
2023/03/16 01:48:24;;;;;;;;;;;;;;;28.24;24.54;99732.94;5054933;28;1372;-39
2023/03/16 01:50:51;;;;;;;;;;;;;;;28.22;24.17;99733.16;5056154;28;1042;-38
2023/03/16 01:53:17;;;;;;;;;;;;;;;28.44;23.96;99732.88;5060458;28;1178;-40
2023/03/16 01:55:42;;;;;;;;;;;;;;;27.82;24.80;99741.41;5058451;28;1079;-40
2023/03/16 01:58:08;;;;;;;;;;;;;;;27.33;25.77;99737.09;5055534;28;1083;-41
2023/03/16 02:00:33;;;;;;;;;;;;;;;28.22;24.33;99735.84;5038699;28;1120;-41
2023/03/16 02:03:16;;;;;;;;;;;;;;;28.36;24.18;99727.72;5060138;28;1894;-41
2023/03/16 02:05:53;;;;;;;;;;;;;;;28.39;23.84;99739.97;5058776;28;1102;-41
2023/03/16 02:08:21;;;;;;;;;;;;;;;27.68;24.97;99740.56;5057999;28;1369;-39
2023/03/16 02:10:47;;;;;;;;;;;;;;;28.16;24.65;99750.22;5058510;28;1390;-40
2023/03/16 02:13:13;;;;;;;;;;;;;;;28.34;24.18;99746.03;5038356;28;1285;-40
2023/03/16 02:15:38;;;;;;;;;;;;;;;28.55;23.81;99750.28;5058336;28;1628;-40
2023/03/16 02:18:04;;;;;;;;;;;;;;;28.16;24.28;99752.91;5059683;28;1089;-38
2023/03/16 02:20:30;;;;;;;;;;;;;;;27.35;25.36;99753.94;5058141;28;1110;-39
2023/03/16 02:22:55;;;;;;;;;;;;;;;28.29;24.33;99762.03;5059053;28;1905;-41
2023/03/16 02:25:22;;;;;;;;;;;;;;;28.33;24.20;99760.56;5058019;28;1139;-40
2023/03/16 02:27:57;;;;;;;;;;;;;;;28.63;23.61;99757.28;5055094;28;1055;-41
2023/03/16 02:30:23;;;;;;;;;;;;;;;27.86;24.70;99751.56;5074607;28;1384;-38
2023/03/16 02:33:00;;;;;;;;;;;;;;;27.48;25.26;99765.75;5057872;28;1344;-39
2023/03/16 02:35:26;;;;;;;;;;;;;;;28.29;24.40;99756.63;5058042;28;1115;-40
2023/03/16 02:37:51;;;;;;;;;;;;;;;28.47;23.92;99753.22;5057418;28;1255;-38
2023/03/16 02:40:21;;;;;;;;;;;;;;;28.56;23.84;99746.50;5057919;28;1135;-40
2023/03/16 02:43:01;;;;;;;;;;;;;;;27.55;25.26;99752.22;5058912;28;1907;-38
2023/03/16 02:45:32;;;;;;;;;;;;;;;28.19;24.62;99741.69;5074191;28;1113;-38
2023/03/16 02:48:02;;;;;;;;;;;;;;;28.21;24.39;99736.06;5057749;28;1192;-40
2023/03/16 02:50:29;;;;;;;;;;;;;;;28.54;23.77;99737.81;5090947;28;1282;-39
2023/03/16 02:52:54;;;;;;;;;;;;;;;28.09;23.92;99739.41;5058874;28;1032;-40
2023/03/16 02:55:20;;;;;;;;;;;;;;;27.58;25.16;99749.09;5057764;28;1222;-40
2023/03/16 02:57:46;;;;;;;;;;;;;;;28.37;24.11;99751.00;5056835;28;1063;-40
2023/03/16 03:00:17;;;;;;;;;;;;;;;28.36;24.06;99750.16;5090921;28;1385;-40
2023/03/16 03:02:44;;;;;;;;;;;;;;;28.77;23.61;99762.63;5040879;28;1901;-39
2023/03/16 03:05:11;;;;;;;;;;;;;;;27.81;25.04;99756.78;5051280;28;1237;-39
2023/03/16 03:07:36;;;;;;;;;;;;;;;27.17;25.66;99762.66;5056921;28;1157;-39
2023/03/16 03:10:05;;;;;;;;;;;;;;;28.33;24.12;99764.09;5057305;28;1248;-38
2023/03/16 03:12:31;;;;;;;;;;;;;;;28.58;24.03;99773.34;5057141;28;1063;-35
2023/03/16 03:14:57;;;;;;;;;;;;;;;28.31;23.89;99776.16;5058434;28;1253;-39
2023/03/16 03:17:28;;;;;;;;;;;;;;;27.36;25.48;99787.97;5057703;28;1199;-39
2023/03/16 03:19:55;;;;;;;;;;;;;;;28.13;24.62;99785.78;5058608;28;1550;-39
2023/03/16 03:22:21;;;;;;;;;;;;;;;28.10;24.82;99788.91;5090619;28;1899;-38
2023/03/16 03:24:46;;;;;;;;;;;;;;;28.51;24.11;99792.31;5056765;28;1438;-36
2023/03/16 03:27:12;;;;;;;;;;;;;;;28.07;24.38;99786.66;5057137;28;1090;-38
2023/03/16 03:29:38;;;;;;;;;;;;;;;27.38;25.75;99791.31;5056376;28;1406;-41
2023/03/16 03:32:04;;;;;;;;;;;;;;;28.22;24.59;99795.34;5058309;28;1031;-37
2023/03/16 03:34:30;;;;;;;;;;;;;;;28.34;24.47;99795.50;5056861;28;1264;-39
2023/03/16 03:36:56;;;;;;;;;;;;;;;28.59;23.76;99805.59;5056681;28;1229;-38
2023/03/16 03:39:22;;;;;;;;;;;;;;;27.89;24.34;99800.84;5056789;28;1129;-40
2023/03/16 03:41:53;;;;;;;;;;;;;;;27.37;25.47;99810.44;5058064;28;1109;-38
2023/03/16 03:44:20;;;;;;;;;;;;;;;28.29;24.21;99816.13;5056387;28;1918;-38
2023/03/16 03:46:46;;;;;;;;;;;;;;;28.54;24.18;99816.25;5056682;28;1154;-39
2023/03/16 03:49:12;;;;;;;;;;;;;;;28.40;23.92;99820.03;5089758;28;1209;-38
2023/03/16 03:51:38;;;;;;;;;;;;;;;27.35;25.69;99826.00;5056260;28;1129;-37
2023/03/16 03:54:10;;;;;;;;;;;;;;;28.02;24.98;99827.00;5056277;28;1364;-40
2023/03/16 03:56:42;;;;;;;;;;;;;;;28.20;24.67;99831.72;5057604;28;1089;-37
2023/03/16 03:59:11;;;;;;;;;;;;;;;28.61;23.80;99832.47;5056189;28;1139;-37
2023/03/16 04:01:55;;;;;;;;;;;;;;;27.67;24.97;99828.91;5057361;28;1205;-40
2023/03/16 04:04:24;;;;;;;;;;;;;;;27.10;26.14;99840.94;5056531;28;1901;-37
2023/03/16 04:06:50;;;;;;;;;;;;;;;28.14;24.56;99832.59;5056151;28;1276;-36
2023/03/16 04:09:16;;;;;;;;;;;;;;;28.16;24.40;99842.13;5055828;28;1295;-39
2023/03/16 04:11:43;;;;;;;;;;;;;;;28.38;24.00;99843.78;5075689;28;1374;-38
2023/03/16 04:14:08;;;;;;;;;;;;;;;26.86;24.12;99847.72;5057088;28;1214;-42
2023/03/16 04:16:36;;;;;;;;;;;;;;;25.54;26.34;99845.47;5056099;28;1297;-42
2023/03/16 04:19:03;;;;;;;;;;;;;;;26.08;26.42;99852.28;5055999;28;1101;-42
2023/03/16 04:21:28;;;;;;;;;;;;;;;24.91;26.52;99854.16;5055242;28;1157;-42
2023/03/16 04:23:54;;;;;;;;;;;;;;;22.16;30.77;99857.13;5057032;28;1975;-42
2023/03/16 04:26:24;;;;;;;;;;;;;;;22.11;31.13;99852.31;5055813;28;1119;-43
2023/03/16 04:28:51;;;;;;;;;;;;;;;26.59;24.44;99861.09;5055818;28;1139;-40
2023/03/16 04:31:18;;;;;;;;;;;;;;;26.93;23.48;99867.44;5057283;28;1051;-40
2023/03/16 04:33:45;;;;;;;;;;;;;;;25.04;26.44;99865.06;5055546;28;1398;-37
2023/03/16 04:36:11;;;;;;;;;;;;;;;25.63;25.92;99870.44;5056688;28;1146;-40
2023/03/16 04:38:37;;;;;;;;;;;;;;;27.83;22.74;99876.31;5055704;28;1567;-39
2023/03/16 04:41:03;;;;;;;;;;;;;;;28.45;22.23;99871.63;5055770;28;1373;-40
2023/03/16 04:43:35;;;;;;;;;;;;;;;25.77;25.34;99881.31;5055301;28;2034;-39
2023/03/16 04:46:11;;;;;;;;;;;;;;;24.83;27.10;99874.75;5055503;28;1153;-37
2023/03/16 04:48:37;;;;;;;;;;;;;;;27.05;24.10;99883.06;5055508;28;1416;-38
2023/03/16 04:51:04;;;;;;;;;;;;;;;27.59;23.24;99885.84;5055162;28;1162;-35
2023/03/16 04:53:32;;;;;;;;;;;;;;;27.96;23.48;99888.97;5055507;28;1314;-32
2023/03/16 04:56:03;;;;;;;;;;;;;;;28.57;22.61;99897.00;5055849;28;1098;-34
2023/03/16 04:58:30;;;;;;;;;;;;;;;28.61;22.81;99894.69;5055260;28;1291;-38
2023/03/16 05:00:58;;;;;;;;;;;;;;;26.04;25.59;99890.41;5054939;28;1122;-36
2023/03/16 05:03:27;;;;;;;;;;;;;;;27.08;25.30;99898.84;5055363;28;1965;-39
2023/03/16 05:05:53;;;;;;;;;;;;;;;28.72;22.89;99904.84;5056290;28;1194;-34
2023/03/16 05:08:19;;;;;;;;;;;;;;;26.69;25.12;99902.03;5055469;28;1213;-36
2023/03/16 05:10:48;;;;;;;;;;;;;;;26.32;26.47;99904.06;5054929;28;1383;-37
2023/03/16 05:13:14;;;;;;;;;;;;;;;28.62;23.29;99917.16;5054665;28;1177;-31
2023/03/16 05:15:40;;;;;;;;;;;;;;;29.26;22.42;99909.16;5071844;28;1238;-33
2023/03/16 05:18:26;;;;;;;;;;;;;;;29.29;22.34;99916.03;5056035;28;1106;-36
2023/03/16 05:20:52;;;;;;;;;;;;;;;27.20;24.40;99926.09;5054994;28;1133;-20
2023/03/16 05:23:19;;;;;;;;;;;;;;;26.70;25.54;99922.56;5074959;28;1894;-21
2023/03/16 05:25:47;;;;;;;;;;;;;;;27.05;24.99;99927.09;5054675;28;1116;-20
2023/03/16 05:28:15;;;;;;;;;;;;;;;26.28;26.62;99928.75;5054821;28;1163;-21
2023/03/16 05:30:55;;;;;;;;;;;;;;;26.18;26.50;99925.56;5055145;28;1196;-20
2023/03/16 05:33:24;;;;;;;;;;;;;;;26.03;26.80;99925.66;5071227;28;1345;-20
2023/03/16 05:35:56;;;;;;;;;;;;;;;25.99;26.57;99919.00;5054751;28;1345;-19
2023/03/16 05:38:23;;;;;;;;;;;;;;;25.98;26.93;99920.84;5054744;28;1629;-20
2023/03/16 05:40:53;;;;;;;;;;;;;;;25.93;27.02;99926.00;5054734;28;1272;-19
2023/03/16 05:43:34;;;;;;;;;;;;;;;26.03;26.92;99929.19;5054061;28;1976;-20
2023/03/16 05:46:00;;;;;;;;;;;;;;;25.97;26.98;99931.81;5054655;28;1420;-20
2023/03/16 05:48:26;;;;;;;;;;;;;;;25.97;27.17;99918.34;5056606;28;1213;-20
2023/03/16 05:50:55;;;;;;;;;;;;;;;25.91;27.65;99936.13;5054315;28;1287;-20
2023/03/16 05:53:27;;;;;;;;;;;;;;;25.83;27.05;99930.88;5054700;28;1328;-20
2023/03/16 05:55:54;;;;;;;;;;;;;;;25.84;27.33;99938.75;5054743;28;1101;-20
2023/03/16 05:58:20;;;;;;;;;;;;;;;25.85;27.27;99939.59;5054516;28;1386;-20
2023/03/16 06:00:46;;;;;;;;;;;;;;;25.87;26.97;99940.25;5055914;28;1200;-19
2023/03/16 06:03:21;;;;;;;;;;;;;;;25.87;27.37;99934.88;5071405;28;2002;-20
2023/03/16 06:05:48;;;;;;;;;;;;;;;25.89;27.21;99938.19;5071141;28;1484;-20
2023/03/16 06:08:15;;;;;;;;;;;;;;;25.85;26.98;99945.00;5054643;28;1156;-20
2023/03/16 06:10:47;;;;;;;;;;;;;;;25.80;27.28;99942.88;5067605;28;1241;-20
2023/03/16 06:13:15;;;;;;;;;;;;;;;25.77;27.19;99945.97;5048391;28;1257;-21
2023/03/16 06:15:40;;;;;;;;;;;;;;;25.74;27.56;99944.47;5070856;28;1248;-19
2023/03/16 06:18:06;;;;;;;;;;;;;;;25.74;27.26;99949.88;5054626;28;1187;-20
2023/03/16 06:20:32;;;;;;;;;;;;;;;25.79;27.42;99949.31;5054469;28;1303;-20
2023/03/16 06:22:58;;;;;;;;;;;;;;;25.63;28.04;99950.38;5054082;28;1965;-20
2023/03/16 06:25:23;;;;;;;;;;;;;;;25.68;27.36;99954.19;5054363;28;1261;-21
2023/03/16 06:27:49;;;;;;;;;;;;;;;25.74;27.29;99952.56;5053880;28;1233;-20
2023/03/16 06:30:16;;;;;;;;;;;;;;;25.67;27.67;99965.16;5054533;28;1112;-20
2023/03/16 06:32:44;;;;;;;;;;;;;;;25.69;27.72;99960.41;5054407;28;1154;-20
2023/03/16 06:35:10;;;;;;;;;;;;;;;25.63;27.85;99964.69;5053390;28;940;-20
2023/03/16 06:37:38;;;;;;;;;;;;;;;25.60;27.71;99965.06;5074376;28;1220;-20
2023/03/16 06:40:18;;;;;;;;;;;;;;;25.65;27.56;99972.59;5058115;28;1342;-20
2023/03/16 06:42:44;;;;;;;;;;;;;;;25.64;27.91;99973.63;5057322;28;1906;-19
2023/03/16 06:45:15;;;;;;;;;;;;;;;25.64;27.70;99974.44;5057547;28;1253;-20
2023/03/16 06:47:42;;;;;;;;;;;;;;;25.68;27.68;99983.81;5057517;28;1113;-20
2023/03/16 06:50:08;;;;;;;;;;;;;;;25.66;28.33;99983.16;5057277;28;1268;-20
2023/03/16 06:52:34;;;;;;;;;;;;;;;25.75;27.79;99993.81;5057716;28;1390;-19
2023/03/16 06:55:00;;;;;;;;;;;;;;;25.68;27.68;99994.59;5057595;28;1271;-20
2023/03/16 06:57:27;;;;;;;;;;;;;;;25.88;27.34;99998.50;5057148;28;1166;-20
2023/03/16 06:59:53;;;;;;;;;;;;;;;25.48;28.03;100001.56;5057687;28;1014;-19
2023/03/16 07:02:18;;;;;;;;;;;;;;;25.54;28.24;100007.03;5059030;28;1056;-19
2023/03/16 07:04:44;;;;;;;;;;;;;;;25.60;27.89;100007.31;5073541;28;1973;-19
2023/03/16 07:07:10;;;;;;;;;;;;;;;25.63;28.00;100007.78;5057136;28;1170;-19
2023/03/16 07:09:37;;;;;;;;;;;;;;;25.52;28.45;100010.97;5057388;28;1165;-20
2023/03/16 07:12:02;;;;;;;;;;;;;;;25.78;28.49;100020.38;5057030;28;1245;-19
2023/03/16 07:14:30;;;;;;;;;;;;;;;25.75;29.08;100028.84;5057362;28;1226;-19
2023/03/16 07:16:56;;;;;;;;;;;;;;;25.82;27.86;100026.22;5073769;28;1225;-19
2023/03/16 07:19:23;;;;;;;;;;;;;;;25.76;28.43;100017.88;5040274;28;1426;-19
2023/03/16 07:21:50;;;;;;;;;;;;;;;25.70;28.26;100031.25;5057243;28;1206;-20
2023/03/16 07:24:18;;;;;;;;;;;;;;;25.64;27.93;100022.09;5056889;28;1902;-19
2023/03/16 07:26:45;;;;;;;;;;;;;;;25.61;28.48;100030.53;5056371;28;1120;-20
2023/03/16 07:29:17;;;;;;;;;;;;;;;25.62;28.73;100033.03;5056034;28;1328;-19
2023/03/16 07:31:43;;;;;;;;;;;;;;;25.78;28.18;100031.97;5054049;28;1406;-20
2023/03/16 07:34:14;;;;;;;;;;;;;;;25.87;27.98;100037.25;5055822;28;1454;-19
2023/03/16 07:36:47;;;;;;;;;;;;;;;25.82;28.02;100045.06;5056968;28;1235;-19
2023/03/16 07:39:16;;;;;;;;;;;;;;;25.76;28.25;100044.81;5056970;28;1578;-19
2023/03/16 07:41:42;;;;;;;;;;;;;;;25.88;27.79;100049.69;5073024;28;1327;-19
2023/03/16 07:44:16;;;;;;;;;;;;;;;25.82;28.23;100045.91;5056434;28;1914;-19
2023/03/16 07:46:46;;;;;;;;;;;;;;;25.94;27.82;100056.19;5056536;28;1198;-19
2023/03/16 07:49:12;;;;;;;;;;;;;;;25.94;27.76;100051.63;5073107;28;1121;-19
2023/03/16 07:51:38;;;;;;;;;;;;;;;25.95;27.60;100057.84;5056626;28;1144;-19
2023/03/16 07:54:04;;;;;;;;;;;;;;;25.89;27.41;100059.44;5090323;28;1379;-19
2023/03/16 07:56:31;;;;;;;;;;;;;;;25.85;27.98;100061.69;5056624;28;1168;-19
2023/03/16 07:59:00;;;;;;;;;;;;;;;25.90;27.59;100066.50;5056071;28;1218;-20
2023/03/16 08:01:26;;;;;;;;;;;;;;;25.84;27.69;100072.66;5056327;28;1064;-19
2023/03/16 08:03:52;;;;;;;;;;;;;;;25.89;27.83;100078.31;5056179;28;1975;-20
2023/03/16 08:06:18;;;;;;;;;;;;;;;25.83;28.00;100077.19;5073209;28;1115;-20
2023/03/16 08:08:43;;;;;;;;;;;;;;;25.95;27.24;100080.22;5056192;28;1301;-19
2023/03/16 08:11:22;;;;;;;;;;;;;;;25.86;27.54;100087.59;5055661;28;1236;-19
2023/03/16 08:13:53;;;;;;;;;;;;;;;25.68;27.80;100086.16;5072831;28;1085;-19
2023/03/16 08:16:22;;;;;;;;;;;;;;;25.88;27.64;100084.72;5072743;28;1258;-19
2023/03/16 08:18:49;;;;;;;;;;;;;;;25.80;27.98;100091.06;5055852;28;2235;-19
2023/03/16 08:21:18;;;;;;;;;;;;;;;25.92;27.21;100089.53;5055798;28;1863;-19
2023/03/16 08:23:48;;;;;;;;;;;;;;;25.62;28.29;100094.13;5055329;28;1975;-19
2023/03/16 08:26:14;;;;;;;;;;;;;;;25.59;27.96;100089.94;5056061;28;1201;-19
2023/03/16 08:28:40;;;;;;;;;;;;;;;25.82;27.92;100091.72;5055949;28;1098;-19
2023/03/16 08:31:09;;;;;;;;;;;;;;;25.76;27.84;100097.84;5055771;28;1175;-19
2023/03/16 08:33:39;;;;;;;;;;;;;;;25.65;28.35;100091.09;5056260;28;1201;-19
2023/03/16 08:36:07;;;;;;;;;;;;;;;25.77;27.88;100100.38;5072247;28;1352;-20
2023/03/16 08:38:33;;;;;;;;;;;;;;;25.76;27.83;100101.38;5055838;28;1167;-19
2023/03/16 08:41:03;;;;;;;;;;;;;;;25.61;28.06;100098.69;5055792;28;1352;-19
2023/03/16 08:43:31;;;;;;;;;;;;;;;25.90;27.75;100110.47;5053202;28;1913;-19
2023/03/16 08:45:57;;;;;;;;;;;;;;;25.90;27.93;100110.47;5055332;28;1039;-19
2023/03/16 08:48:27;;;;;;;;;;;;;;;25.84;27.89;100121.16;5054962;28;1131;-19
2023/03/16 08:50:54;;;;;;;;;;;;;;;25.65;28.27;100113.50;5055430;28;1218;-20
2023/03/16 08:53:19;;;;;;;;;;;;;;;25.71;28.20;100103.78;5056485;28;1188;-19
2023/03/16 08:55:45;;;;;;;;;;;;;;;25.82;28.23;100115.13;5056681;28;1067;-19
2023/03/16 08:58:11;;;;;;;;;;;;;;;25.56;28.46;100115.41;5056365;28;1132;-19
2023/03/16 09:00:37;;;;;;;;;;;;;;;25.70;28.42;100114.75;5055839;28;1196;-19
2023/03/16 09:03:02;;;;;;;;;;;;;;;25.85;28.11;100122.81;5056422;28;1913;-19
2023/03/16 09:05:28;;;;;;;;;;;;;;;25.86;27.61;100119.13;5056575;28;1055;-19
2023/03/16 09:07:54;;;;;;;;;;;;;;;25.72;28.12;100118.13;5056732;28;1003;-19
2023/03/16 09:10:21;;;;;;;;;;;;;;;25.84;27.82;100118.47;5056122;28;1111;-19
2023/03/16 09:12:51;;;;;;;;;;;;;;;25.83;27.93;100119.47;5056939;28;1011;-19
2023/03/16 09:15:17;;;;;;;;;;;;;;;25.79;28.17;100117.16;5056220;28;1125;-19
2023/03/16 09:17:43;;;;;;;;;;;;;;;25.76;27.77;100117.53;5056520;28;1097;-20
2023/03/16 09:20:09;;;;;;;;;;;;;;;25.81;28.05;100130.44;5055856;28;1046;-20
2023/03/16 09:22:36;;;;;;;;;;;;;;;25.87;28.06;100124.31;5054559;28;1905;-19
2023/03/16 09:25:04;;;;;;;;;;;;;;;25.79;28.06;100127.94;5056070;28;1043;-19
2023/03/16 09:27:29;;;;;;;;;;;;;;;25.80;27.96;100131.47;5056806;28;1071;-19
2023/03/16 09:29:55;;;;;;;;;;;;;;;25.72;28.20;100137.81;5056397;28;1143;-19
2023/03/16 09:32:21;;;;;;;;;;;;;;;25.54;28.58;100144.38;5056540;28;1136;-19
2023/03/16 09:34:46;;;;;;;;;;;;;;;25.64;28.05;100149.50;5055890;28;1019;-19
2023/03/16 09:37:12;;;;;;;;;;;;;;;25.40;28.41;100154.16;5056199;28;1167;-19
2023/03/16 09:39:38;;;;;;;;;;;;;;;25.46;28.46;100152.56;5056337;28;1078;-19
2023/03/16 09:42:08;;;;;;;;;;;;;;;25.40;28.36;100156.84;5055972;28;1107;-19
2023/03/16 09:44:52;;;;;;;;;;;;;;;25.29;28.58;100165.38;5054479;28;1980;-20
2023/03/16 09:47:18;;;;;;;;;;;;;;;25.13;28.72;100164.53;5055362;28;1162;-19
2023/03/16 09:49:46;;;;;;;;;;;;;;;25.16;28.60;100172.22;5038390;28;1225;-19
2023/03/16 09:52:32;;;;;;;;;;;;;;;25.15;28.45;100167.03;5055857;28;1200;-19
2023/03/16 09:54:59;;;;;;;;;;;;;;;25.21;28.77;100168.97;5056280;28;1134;-19
2023/03/16 09:57:34;;;;;;;;;;;;;;;25.28;28.59;100178.00;5056036;28;1050;-19
2023/03/16 10:00:20;;;;;;;;;;;;;;;25.22;28.40;100175.22;5055488;28;1186;-19
2023/03/16 10:03:02;;;;;;;;;;;;;;;25.17;28.63;100187.34;5043383;28;1914;-19
2023/03/16 10:05:28;;;;;;;;;;;;;;;25.15;28.86;100188.56;5054802;28;1111;-19
2023/03/16 10:07:53;;;;;;;;;;;;;;;25.26;28.42;100189.97;5055802;28;1053;-19
2023/03/16 10:10:32;;;;;;;;;;;;;;;25.26;28.55;100190.81;5055906;28;1143;-19
2023/03/16 10:12:57;;;;;;;;;;;;;;;24.48;28.36;100194.47;5057447;28;881;-19
2023/03/16 10:15:26;;;;;;;;;;;;;;;23.93;29.15;100195.25;5059474;28;1439;-19
2023/03/16 10:17:51;;;;;;;;;;;;;;;23.45;29.76;100190.72;5058207;28;1035;-19
2023/03/16 10:20:18;;;;;;;;;;;;;;;23.24;29.70;100191.22;5059746;28;1070;-19
2023/03/16 10:22:44;;;;;;;;;;;;;;;23.82;30.07;100195.63;5054604;28;1906;-19
2023/03/16 10:25:11;;;;;;;;;;;;;;;26.34;26.88;100199.47;5058685;28;922;-19
2023/03/16 10:27:37;;;;;;;;;;;;;;;26.28;26.47;100198.34;5058541;28;1145;-20
2023/03/16 10:30:06;;;;;;;;;;;;;;;25.42;27.76;100197.03;5059453;28;1038;-19
2023/03/16 10:32:33;;;;;;;;;;;;;;;26.11;27.54;100200.44;5059433;28;1027;-19
2023/03/16 10:35:22;;;;;;;;;;;;;;;27.54;25.46;100201.69;5058855;28;1023;-19
2023/03/16 10:37:48;;;;;;;;;;;;;;;28.15;24.48;100202.81;5048858;28;1251;-19
2023/03/16 10:40:13;;;;;;;;;;;;;;;28.43;23.91;100207.28;5059379;28;1488;-19
2023/03/16 10:42:39;;;;;;;;;;;;;;;28.87;23.44;100208.78;5059056;28;1989;-19
2023/03/16 10:45:05;;;;;;;;;;;;;;;29.06;23.07;100216.09;5059244;28;1074;-19
2023/03/16 10:47:31;;;;;;;;;;;;;;;29.24;23.09;100214.63;5059097;28;1146;-19
2023/03/16 10:49:57;;;;;;;;;;;;;;;27.05;25.69;100212.38;5059126;28;1158;-19
2023/03/16 10:52:31;;;;;;;;;;;;;;;27.87;25.14;100209.16;5059066;28;1204;-28
2023/03/16 10:55:05;;;;;;;;;;;;;;;29.71;22.75;100213.72;5059112;28;1328;-19
2023/03/16 10:57:34;;;;;;;;;;;;;;;27.26;24.91;100212.34;5057825;28;1000;-20
2023/03/16 11:00:21;;;;;;;;;;;;;;;26.52;26.54;100207.16;5058478;28;1189;-19
2023/03/16 11:02:48;;;;;;;;;;;;;;;28.64;24.39;100215.44;5036772;28;2093;-19
2023/03/16 11:05:16;;;;;;;;;;;;;;;29.39;23.45;100221.69;5058921;28;1050;-19
2023/03/16 11:07:58;;;;;;;;;;;;;;;29.60;22.81;100220.63;5059239;28;1161;-19
2023/03/16 11:10:24;;;;;;;;;;;;;;;29.86;22.66;100221.59;5058318;28;1070;-19
2023/03/16 11:12:49;;;;;;;;;;;;;;;30.13;22.33;100226.06;5073918;28;852;-19
2023/03/16 11:15:16;;;;;;;;;;;;;;;29.63;22.05;100220.19;5058664;28;1111;-19
2023/03/16 11:17:46;;;;;;;;;;;;;;;27.74;24.65;100212.66;5058067;28;1144;-19
2023/03/16 11:20:16;;;;;;;;;;;;;;;28.34;24.21;100219.34;5058669;28;1113;-19
2023/03/16 11:22:44;;;;;;;;;;;;;;;26.96;25.98;100215.19;5057175;28;1910;-20
2023/03/16 11:25:12;;;;;;;;;;;;;;;26.68;26.35;100209.75;5055465;28;1044;-19
2023/03/16 11:27:38;;;;;;;;;;;;;;;26.73;26.51;100213.56;5058558;28;1435;-19
2023/03/16 11:30:14;;;;;;;;;;;;;;;26.81;26.53;100209.88;5058174;28;1161;-20
2023/03/16 11:32:40;;;;;;;;;;;;;;;26.90;26.26;100215.97;5056803;28;1015;-20
2023/03/16 11:35:14;;;;;;;;;;;;;;;27.39;26.25;100216.16;5057056;28;1043;-19
2023/03/16 11:38:05;;;;;;;;;;;;;;;27.57;25.33;100220.22;5058029;28;921;-19
2023/03/16 11:40:37;;;;;;;;;;;;;;;27.20;26.04;100218.53;5056424;28;1311;-19
2023/03/16 11:43:16;;;;;;;;;;;;;;;27.21;26.63;100222.06;5057898;28;1902;-19
2023/03/16 11:45:53;;;;;;;;;;;;;;;28.08;25.09;100221.72;5057468;28;1142;-19
2023/03/16 11:48:28;;;;;;;;;;;;;;;27.86;24.87;100223.72;5058119;28;1038;-19
2023/03/16 11:50:57;;;;;;;;;;;;;;;27.06;25.96;100219.47;5058399;28;1113;-19
2023/03/16 11:53:23;;;;;;;;;;;;;;;27.07;25.96;100226.53;5058092;28;1106;-19
2023/03/16 11:55:51;;;;;;;;;;;;;;;27.84;25.53;100226.59;5057712;28;1493;-19
2023/03/16 11:58:30;;;;;;;;;;;;;;;28.24;25.30;100230.53;5057664;28;1107;-19
2023/03/16 12:01:07;;;;;;;;;;;;;;;27.46;25.74;100224.31;5056953;28;1092;-20
2023/03/16 12:03:53;;;;;;;;;;;;;;;27.05;26.22;100239.38;5057668;28;1914;-19
2023/03/16 12:06:26;;;;;;;;;;;;;;;27.82;25.81;100235.97;5057977;28;1061;-20
2023/03/16 12:08:58;;;;;;;;;;;;;;;28.01;25.58;100242.47;5056251;28;1055;-20
2023/03/16 12:11:34;;;;;;;;;;;;;;;27.17;26.52;100240.53;5057592;28;1011;-19
2023/03/16 12:14:00;;;;;;;;;;;;;;;26.60;27.30;100240.41;5056974;28;936;-20
2023/03/16 12:16:29;;;;;;;;;;;;;;;27.12;26.75;100248.38;5057262;28;1078;-20
2023/03/16 12:19:00;;;;;;;;;;;;;;;27.77;26.04;100241.97;5057122;28;1054;-20
2023/03/16 12:21:31;;;;;;;;;;;;;;;28.09;25.44;100252.31;5056222;28;1051;-20
2023/03/16 12:24:01;;;;;;;;;;;;;;;27.06;26.63;100252.69;5056797;28;1972;-19
2023/03/16 12:26:31;;;;;;;;;;;;;;;26.57;27.52;100254.28;5057269;28;1137;-20
2023/03/16 12:28:57;;;;;;;;;;;;;;;27.43;26.51;100260.66;5056597;28;1150;-20
2023/03/16 12:31:41;;;;;;;;;;;;;;;27.94;25.64;100264.09;5056035;28;1197;-20
2023/03/16 12:34:08;;;;;;;;;;;;;;;27.07;26.53;100259.75;5089316;28;1054;-20
2023/03/16 12:36:37;;;;;;;;;;;;;;;27.26;26.20;100266.34;5056416;28;1173;-20
2023/03/16 12:39:03;;;;;;;;;;;;;;;27.48;26.31;100269.00;5055804;28;1134;-21
2023/03/16 12:41:38;;;;;;;;;;;;;;;28.03;25.46;100262.06;5057380;28;1098;-19
2023/03/16 12:44:17;;;;;;;;;;;;;;;28.24;24.88;100271.09;5043499;28;1977;-20
2023/03/16 12:46:58;;;;;;;;;;;;;;;27.03;26.03;100266.56;5055843;28;1150;-20
2023/03/16 12:49:24;;;;;;;;;;;;;;;26.88;26.56;100269.31;5056853;28;961;-20
2023/03/16 12:51:59;;;;;;;;;;;;;;;27.79;25.99;100269.66;5056665;28;1067;-19
2023/03/16 12:54:25;;;;;;;;;;;;;;;28.10;25.26;100273.75;5056307;28;1034;-20
2023/03/16 12:56:52;;;;;;;;;;;;;;;27.23;26.17;100274.84;5056217;28;1109;-19
2023/03/16 12:59:24;;;;;;;;;;;;;;;26.86;27.19;100274.91;5056669;28;1122;-19